Time;durP1;ratioP1;P1;durP2;ratioP2;P2;SDS_P1;SDS_P2;PMS_P1;PMS_P2;Temp;Humidity;BMP_temperature;BMP_pressure;BME280_temperature;BME280_humidity;BME280_pressure;Samples;Min_cycle;Max_cycle;Signal;HPM_P1;HPM_P2
2023/01/23 00:00:52;;;;;;;6.95;3.85;;;2.10;97.80;;;;;;5025076;28;20030;-71
2023/01/23 00:03:18;;;;;;;10.07;3.97;;;2.10;97.80;;;;;;5023386;28;20029;-72
2023/01/23 00:05:43;;;;;;;8.52;3.80;;;2.10;97.80;;;;;;5023879;28;20359;-71
2023/01/23 00:08:09;;;;;;;9.20;3.53;;;2.10;97.80;;;;;;5027653;28;20065;-72
2023/01/23 00:10:37;;;;;;;6.60;3.55;;;2.00;97.80;;;;;;5027998;28;20034;-71
2023/01/23 00:13:06;;;;;;;8.52;3.72;;;2.10;97.90;;;;;;5014195;28;20025;-71
2023/01/23 00:15:34;;;;;;;7.70;3.70;;;2.10;97.80;;;;;;5014415;28;20043;-72
2023/01/23 00:18:00;;;;;;;8.30;3.25;;;2.10;97.90;;;;;;5012102;28;20042;-71
2023/01/23 00:20:25;;;;;;;9.82;3.85;;;2.10;97.80;;;;;;5020472;28;20363;-71
2023/01/23 00:22:51;;;;;;;8.23;4.00;;;2.10;97.90;;;;;;5025036;28;20132;-71
2023/01/23 00:25:16;;;;;;;9.18;3.80;;;2.00;97.90;;;;;;5030340;28;20025;-71
2023/01/23 00:27:42;;;;;;;10.45;3.65;;;2.10;97.90;;;;;;5036980;28;20545;-71
2023/01/23 00:30:08;;;;;;;7.43;2.97;;;2.10;98.00;;;;;;5044585;28;20033;-71
2023/01/23 00:32:33;;;;;;;9.23;3.42;;;2.10;97.90;;;;;;5032491;28;20029;-71
2023/01/23 00:34:59;;;;;;;7.55;3.15;;;2.00;98.00;;;;;;5035955;28;20037;-71
2023/01/23 00:37:24;;;;;;;7.45;2.90;;;2.10;98.00;;;;;;5032162;28;20033;-71
2023/01/23 00:39:50;;;;;;;7.00;3.63;;;2.00;97.90;;;;;;5025047;28;20490;-71
2023/01/23 00:42:16;;;;;;;8.27;2.80;;;2.00;97.90;;;;;;5019220;28;20046;-71
2023/01/23 00:44:42;;;;;;;6.18;3.22;;;2.00;98.00;;;;;;5029076;28;20029;-71
2023/01/23 00:47:07;;;;;;;6.50;3.00;;;2.00;98.00;;;;;;5026278;28;20044;-72
2023/01/23 00:49:33;;;;;;;4.95;2.78;;;2.10;98.00;;;;;;5028511;28;20577;-71
2023/01/23 00:51:58;;;;;;;5.30;2.90;;;2.00;98.00;;;;;;5027512;28;20115;-71
2023/01/23 00:54:24;;;;;;;7.35;2.90;;;2.00;98.00;;;;;;5026543;28;20121;-71
2023/01/23 00:56:50;;;;;;;6.82;3.20;;;2.00;97.90;;;;;;5018887;28;20022;-71
2023/01/23 00:59:16;;;;;;;6.75;2.50;;;2.00;97.90;;;;;;5024106;28;20087;-71
2023/01/23 01:01:42;;;;;;;7.70;3.30;;;2.00;98.00;;;;;;5029109;28;20029;-72
2023/01/23 01:04:07;;;;;;;8.93;3.08;;;2.00;97.90;;;;;;5027501;28;20033;-71
2023/01/23 01:06:33;;;;;;;7.75;3.03;;;2.00;97.90;;;;;;5026347;28;20041;-71
2023/01/23 01:08:59;;;;;;;7.30;2.85;;;2.00;97.90;;;;;;5020009;28;20068;-71
2023/01/23 01:11:25;;;;;;;7.18;2.90;;;2.00;97.90;;;;;;5026382;28;20045;-71
2023/01/23 01:13:50;;;;;;;8.38;3.40;;;2.00;97.90;;;;;;5026484;28;20036;-71
2023/01/23 01:16:16;;;;;;;9.27;3.25;;;1.90;97.90;;;;;;5025926;28;20026;-71
2023/01/23 01:18:43;;;;;;;6.45;3.17;;;2.00;97.90;;;;;;5023766;28;20057;-71
2023/01/23 01:21:11;;;;;;;7.13;3.28;;;1.90;97.90;;;;;;5031207;28;20025;-71
2023/01/23 01:23:37;;;;;;;7.57;3.08;;;1.90;97.90;;;;;;5033295;28;20049;-71
2023/01/23 01:26:04;;;;;;;8.10;3.55;;;1.90;97.90;;;;;;5021602;28;20037;-71
2023/01/23 01:28:31;;;;;;;6.63;3.33;;;1.90;97.90;;;;;;5021785;28;20112;-71
2023/01/23 01:31:02;;;;;;;5.95;3.20;;;1.90;97.90;;;;;;5025024;28;20041;-70
2023/01/23 01:33:27;;;;;;;6.95;3.53;;;1.90;97.90;;;;;;5031270;28;20127;-71
2023/01/23 01:35:55;;;;;;;7.78;3.17;;;1.90;97.90;;;;;;5027660;28;20109;-71
2023/01/23 01:38:21;;;;;;;7.13;3.45;;;1.90;97.90;;;;;;5032534;28;20033;-70
2023/01/23 01:40:47;;;;;;;7.28;3.55;;;1.90;97.90;;;;;;5020872;28;20121;-71
2023/01/23 01:43:22;;;;;;;5.68;2.90;;;1.90;97.90;;;;;;5015167;28;20124;-71
2023/01/23 01:46:08;;;;;;;6.57;3.33;;;2.00;97.90;;;;;;5015274;28;20029;-71
2023/01/23 01:48:54;;;;;;;8.55;3.38;;;1.90;97.90;;;;;;5011582;28;20129;-71
2023/01/23 01:51:41;;;;;;;6.78;3.20;;;1.90;97.90;;;;;;5009855;28;20041;-71
2023/01/23 01:54:12;;;;;;;6.65;3.05;;;1.90;97.90;;;;;;5010799;28;20060;-71
2023/01/23 01:56:45;;;;;;;7.43;3.45;;;1.90;97.90;;;;;;5011218;28;20061;-71
2023/01/23 01:59:11;;;;;;;7.22;3.47;;;1.90;97.90;;;;;;5014576;28;20038;-71
2023/01/23 02:01:38;;;;;;;5.53;3.35;;;1.90;97.90;;;;;;5012989;28;20033;-71
2023/01/23 02:04:05;;;;;;;8.35;3.30;;;1.90;97.90;;;;;;5011439;28;20129;-71
2023/01/23 02:06:30;;;;;;;8.52;3.45;;;1.90;97.90;;;;;;5012821;28;20037;-71
2023/01/23 02:09:15;;;;;;;8.02;3.67;;;1.90;98.00;;;;;;5011102;28;20105;-71
2023/01/23 02:11:42;;;;;;;10.25;3.60;;;1.90;98.00;;;;;;5021178;28;20482;-71
2023/01/23 02:14:09;;;;;;;7.53;3.03;;;1.90;98.00;;;;;;5024776;28;20032;-70
2023/01/23 02:16:39;;;;;;;7.47;3.58;;;1.90;97.90;;;;;;5028821;28;20427;-71
2023/01/23 02:19:20;;;;;;;8.35;3.28;;;1.90;97.90;;;;;;5036287;28;20029;-71
2023/01/23 02:21:48;;;;;;;10.05;3.90;;;1.90;97.90;;;;;;5034742;28;20106;-71
2023/01/23 02:24:30;;;;;;;9.88;3.28;;;1.80;97.90;;;;;;5034118;28;20061;-71
2023/01/23 02:26:56;;;;;;;6.35;3.28;;;1.80;97.90;;;;;;5019946;28;20136;-71
2023/01/23 02:29:21;;;;;;;6.75;2.97;;;1.90;97.90;;;;;;5027446;28;20545;-71
2023/01/23 02:31:50;;;;;;;8.05;3.08;;;1.90;98.00;;;;;;5023284;28;20065;-71
2023/01/23 02:34:16;;;;;;;8.77;3.20;;;1.90;97.90;;;;;;5023319;28;20045;-71
2023/01/23 02:36:46;;;;;;;5.32;3.38;;;1.90;98.00;;;;;;5028647;28;20037;-71
2023/01/23 02:39:15;;;;;;;7.38;3.50;;;1.90;98.00;;;;;;5020363;28;20123;-71
2023/01/23 02:41:46;;;;;;;9.10;3.92;;;1.90;98.00;;;;;;5022742;28;20029;-71
2023/01/23 02:44:26;;;;;;;6.97;3.80;;;1.90;98.10;;;;;;5014168;28;20026;-71
2023/01/23 02:46:53;;;;;;;10.82;4.20;;;1.90;98.00;;;;;;5010661;28;20026;-71
2023/01/23 02:49:20;;;;;;;10.13;3.60;;;1.80;98.00;;;;;;5010596;28;20049;-71
2023/01/23 02:51:47;;;;;;;7.00;3.55;;;1.90;98.00;;;;;;5010275;28;20083;-71
2023/01/23 02:54:12;;;;;;;7.32;3.58;;;1.80;98.00;;;;;;5010407;28;20026;-71
2023/01/23 02:56:38;;;;;;;8.55;4.20;;;1.80;97.90;;;;;;5012066;28;20419;-71
2023/01/23 03:01:47;;;;;;;8.10;3.63;;;1.80;98.00;;;;;;5015546;28;20028;-71
2023/01/23 03:04:13;;;;;;;7.47;3.58;;;1.80;97.90;;;;;;5020714;28;20422;-71
2023/01/23 03:06:38;;;;;;;7.25;3.47;;;1.80;97.90;;;;;;5022473;28;20108;-71
2023/01/23 03:09:07;;;;;;;5.30;3.47;;;1.80;97.80;;;;;;5023629;28;20040;-71
2023/01/23 03:11:34;;;;;;;7.03;4.03;;;1.90;97.80;;;;;;5036556;28;20076;-71
2023/01/23 03:14:00;;;;;;;5.72;3.38;;;1.80;97.70;;;;;;5021192;28;20504;-70
2023/01/23 03:16:26;;;;;;;7.32;3.38;;;1.80;97.70;;;;;;5017238;28;20022;-71
2023/01/23 03:18:51;;;;;;;9.20;3.85;;;1.80;97.70;;;;;;5019303;28;20022;-71
2023/01/23 03:21:17;;;;;;;6.70;3.78;;;1.80;97.70;;;;;;5022649;28;20087;-71
2023/01/23 03:23:45;;;;;;;7.63;3.80;;;1.80;97.70;;;;;;5026978;28;20056;-71
2023/01/23 03:26:10;;;;;;;6.60;2.95;;;1.80;97.70;;;;;;5024309;28;20061;-71
2023/01/23 03:31:21;;;;;;;9.57;3.90;;;1.70;97.70;;;;;;5018959;28;20053;-71
2023/01/23 03:33:47;;;;;;;9.98;4.60;;;1.70;97.80;;;;;;5024941;28;20037;-71
2023/01/23 03:36:13;;;;;;;6.95;3.90;;;1.70;97.80;;;;;;5006097;28;20036;-72
2023/01/23 03:41:23;;;;;;;8.52;4.28;;;1.70;97.90;;;;;;5016982;28;20458;-71
2023/01/23 03:41:24;;;;;;;8.48;4.30;;;1.70;97.90;;;;;;5017591;28;20080;-71
2023/01/23 03:43:50;;;;;;;7.40;3.63;;;1.70;97.90;;;;;;5026029;28;20029;-72
2023/01/23 03:46:15;;;;;;;6.95;3.60;;;1.80;98.00;;;;;;5020591;28;20033;-71
2023/01/23 03:48:40;;;;;;;6.90;3.33;;;1.80;98.10;;;;;;5023722;28;20065;-71
2023/01/23 03:51:06;;;;;;;7.43;4.10;;;1.80;98.10;;;;;;5009276;28;20037;-71
2023/01/23 03:53:32;;;;;;;5.65;3.40;;;1.80;98.00;;;;;;5028366;28;20030;-71
2023/01/23 03:55:57;;;;;;;8.32;4.03;;;1.70;98.10;;;;;;5020627;28;21169;-71
2023/01/23 03:58:23;;;;;;;7.90;3.75;;;1.80;98.10;;;;;;5029085;28;20034;-72
2023/01/23 04:00:48;;;;;;;7.72;3.88;;;1.70;98.10;;;;;;5021265;28;20597;-71
2023/01/23 04:03:14;;;;;;;10.05;3.75;;;1.80;98.10;;;;;;5014620;28;20433;-71
2023/01/23 04:05:39;;;;;;;8.50;3.60;;;1.80;98.10;;;;;;5008839;28;20524;-71
2023/01/23 04:08:05;;;;;;;7.50;3.70;;;1.70;98.10;;;;;;5010344;28;20033;-71
2023/01/23 04:10:30;;;;;;;7.95;3.78;;;1.80;98.10;;;;;;5006257;28;20466;-71
2023/01/23 04:12:56;;;;;;;9.32;4.13;;;1.70;98.10;;;;;;5018565;28;20477;-71
2023/01/23 04:15:21;;;;;;;6.22;3.70;;;1.70;98.00;;;;;;5020712;28;20104;-71
2023/01/23 04:17:47;;;;;;;8.10;3.25;;;1.70;98.10;;;;;;5024879;28;20038;-71
2023/01/23 04:20:13;;;;;;;6.47;3.72;;;1.70;98.10;;;;;;5028618;28;20040;-70
2023/01/23 04:22:38;;;;;;;7.15;3.20;;;1.80;98.10;;;;;;5018859;28;20486;-71
2023/01/23 04:25:05;;;;;;;7.90;3.55;;;1.80;98.00;;;;;;5029143;28;20036;-71
2023/01/23 04:27:31;;;;;;;6.93;3.80;;;1.80;98.00;;;;;;5030206;28;20025;-71
2023/01/23 04:29:57;;;;;;;7.60;3.42;;;1.70;98.00;;;;;;5024989;28;20044;-71
2023/01/23 04:32:23;;;;;;;8.43;3.60;;;1.70;98.10;;;;;;5025026;28;20034;-71
2023/01/23 04:34:48;;;;;;;9.88;3.45;;;1.80;98.10;;;;;;5020989;28;20374;-71
2023/01/23 04:37:14;;;;;;;8.25;3.55;;;1.80;98.10;;;;;;5002310;28;20046;-71
2023/01/23 04:39:40;;;;;;;6.95;3.40;;;1.80;98.00;;;;;;5018986;28;20098;-71
2023/01/23 04:42:05;;;;;;;6.22;3.50;;;1.80;98.00;;;;;;5018314;28;20505;-71
2023/01/23 04:44:31;;;;;;;8.13;3.33;;;1.70;98.00;;;;;;5015860;28;20029;-71
2023/01/23 04:46:56;;;;;;;5.88;2.95;;;1.80;98.10;;;;;;5017877;28;20355;-71
2023/01/23 04:49:23;;;;;;;7.85;3.40;;;1.80;98.10;;;;;;5021656;28;20383;-71
2023/01/23 04:51:50;;;;;;;7.30;2.88;;;1.80;98.10;;;;;;5007708;28;20030;-71
2023/01/23 04:54:16;;;;;;;7.55;3.38;;;1.80;98.00;;;;;;5015118;28;20549;-71
2023/01/23 04:56:43;;;;;;;7.05;3.40;;;1.70;98.10;;;;;;5012787;28;20038;-71
2023/01/23 04:59:08;;;;;;;7.57;3.30;;;1.70;98.00;;;;;;5019388;28;20033;-71
2023/01/23 05:01:34;;;;;;;6.38;3.08;;;1.70;98.10;;;;;;5015635;28;20053;-71
2023/01/23 05:03:59;;;;;;;6.53;3.13;;;1.70;98.10;;;;;;5014656;28;20108;-71
2023/01/23 05:06:25;;;;;;;6.95;3.30;;;1.80;98.10;;;;;;5024937;28;20041;-71
2023/01/23 05:08:50;;;;;;;5.45;2.95;;;1.80;98.10;;;;;;5025695;28;20040;-71
2023/01/23 05:11:16;;;;;;;7.78;3.15;;;1.80;98.10;;;;;;5027967;28;20053;-72
2023/01/23 05:13:41;;;;;;;7.50;2.90;;;1.80;98.10;;;;;;5026093;28;20030;-71
2023/01/23 05:16:07;;;;;;;6.88;3.08;;;1.80;98.10;;;;;;5013267;28;20038;-71
2023/01/23 05:18:33;;;;;;;11.38;4.10;;;1.80;98.10;;;;;;5022844;28;20038;-71
2023/01/23 05:20:58;;;;;;;6.10;3.00;;;1.80;98.10;;;;;;5031298;28;20037;-71
2023/01/23 05:23:24;;;;;;;6.57;3.25;;;1.80;98.10;;;;;;5028437;28;20073;-71
2023/01/23 05:25:49;;;;;;;4.47;2.90;;;1.80;98.10;;;;;;5022191;28;20359;-71
2023/01/23 05:28:15;;;;;;;5.35;2.88;;;1.80;98.10;;;;;;5031716;28;20057;-68
2023/01/23 05:30:40;;;;;;;6.88;3.40;;;1.80;98.10;;;;;;5016100;28;20038;-69
2023/01/23 05:33:06;;;;;;;6.75;3.40;;;1.80;98.10;;;;;;5041681;28;20037;-70
2023/01/23 05:35:31;;;;;;;6.28;3.05;;;1.80;98.00;;;;;;5023650;28;20079;-70
2023/01/23 05:37:57;;;;;;;5.65;3.55;;;1.80;98.10;;;;;;5018529;28;20030;-70
2023/01/23 05:40:23;;;;;;;6.75;3.40;;;1.80;98.00;;;;;;5019707;28;20111;-70
2023/01/23 05:42:48;;;;;;;5.05;3.10;;;1.80;98.00;;;;;;5020847;28;20375;-70
2023/01/23 05:45:14;;;;;;;10.32;3.92;;;1.80;98.10;;;;;;5020990;28;20045;-70
2023/01/23 05:47:40;;;;;;;5.68;3.25;;;1.70;98.00;;;;;;5023660;28;20386;-70
2023/01/23 05:50:08;;;;;;;8.48;4.15;;;1.70;98.00;;;;;;5027141;28;20159;-70
2023/01/23 05:52:34;;;;;;;8.77;4.10;;;1.70;98.00;;;;;;5023799;28;20042;-70
2023/01/23 05:55:00;;;;;;;10.63;3.75;;;1.70;98.00;;;;;;5020027;28;20057;-70
2023/01/23 05:57:25;;;;;;;8.27;3.65;;;1.70;98.00;;;;;;5016296;28;20121;-70
2023/01/23 05:59:51;;;;;;;6.47;3.38;;;1.80;98.10;;;;;;5016619;28;20042;-70
2023/01/23 06:02:16;;;;;;;6.80;3.90;;;1.80;98.10;;;;;;5019875;28;20428;-70
2023/01/23 06:04:42;;;;;;;7.22;3.90;;;1.80;98.00;;;;;;5023471;28;20033;-69
2023/01/23 06:07:15;;;;;;;8.02;4.07;;;1.80;98.00;;;;;;5027916;28;20049;-70
2023/01/23 06:09:41;;;;;;;7.97;3.80;;;1.80;98.10;;;;;;5028842;28;20128;-70
2023/01/23 06:12:08;;;;;;;9.52;4.15;;;1.80;98.10;;;;;;5025047;28;20118;-70
2023/01/23 06:14:34;;;;;;;7.25;3.70;;;1.80;98.20;;;;;;5022657;28;20037;-70
2023/01/23 06:16:59;;;;;;;6.28;4.15;;;1.80;98.20;;;;;;5016915;28;20037;-70
2023/01/23 06:19:25;;;;;;;8.63;4.80;;;1.80;98.10;;;;;;5025546;28;20079;-70
2023/01/23 06:21:50;;;;;;;11.43;4.18;;;1.80;98.10;;;;;;5018904;28;20033;-70
2023/01/23 06:24:16;;;;;;;7.95;4.38;;;1.70;98.20;;;;;;5028973;28;20409;-70
2023/01/23 06:26:41;;;;;;;10.45;4.57;;;1.70;98.20;;;;;;5021227;28;20199;-70
2023/01/23 06:29:07;;;;;;;8.70;4.45;;;1.70;98.10;;;;;;5028458;28;20038;-69
2023/01/23 06:31:32;;;;;;;9.65;4.72;;;1.70;98.20;;;;;;5042740;28;20116;-69
2023/01/23 06:33:59;;;;;;;12.30;4.40;;;1.70;98.20;;;;;;5031197;28;20113;-69
2023/01/23 06:36:25;;;;;;;8.50;4.78;;;1.70;98.20;;;;;;5038467;28;20037;-69
2023/01/23 06:38:50;;;;;;;9.70;4.55;;;1.70;98.20;;;;;;5021684;28;20367;-69
2023/01/23 06:41:16;;;;;;;9.75;4.95;;;1.70;98.20;;;;;;5023540;28;20037;-69
2023/01/23 06:43:42;;;;;;;9.82;5.30;;;1.70;98.20;;;;;;5028592;28;20029;-69
2023/01/23 06:46:09;;;;;;;7.65;4.68;;;1.70;98.20;;;;;;5019659;28;20048;-69
2023/01/23 06:48:35;;;;;;;11.13;5.50;;;1.70;98.20;;;;;;5026550;28;20033;-70
2023/01/23 06:51:02;;;;;;;9.80;5.35;;;1.70;98.20;;;;;;5024242;28;20037;-70
2023/01/23 06:53:28;;;;;;;9.15;5.57;;;1.70;98.20;;;;;;5027005;28;20161;-70
2023/01/23 06:55:59;;;;;;;11.43;5.22;;;1.70;98.20;;;;;;5026777;28;20632;-70
2023/01/23 06:58:24;;;;;;;9.75;5.40;;;1.70;98.30;;;;;;5028542;28;20036;-70
2023/01/23 07:00:50;;;;;;;10.52;5.95;;;1.70;98.20;;;;;;5032195;28;20033;-70
2023/01/23 07:03:15;;;;;;;9.45;5.47;;;1.70;98.30;;;;;;5030074;28;20454;-70
2023/01/23 07:05:42;;;;;;;9.50;5.35;;;1.80;98.40;;;;;;5022597;28;20065;-69
2023/01/23 07:08:08;;;;;;;15.00;6.13;;;1.80;98.30;;;;;;5025479;28;20375;-70
2023/01/23 07:10:36;;;;;;;12.60;5.88;;;1.70;98.30;;;;;;5019513;28;20044;-70
2023/01/23 07:13:06;;;;;;;11.15;6.07;;;1.80;98.40;;;;;;5017691;28;20029;-70
2023/01/23 07:15:32;;;;;;;15.70;6.80;;;1.80;98.30;;;;;;5025223;28;20075;-69
2023/01/23 07:17:58;;;;;;;12.70;6.30;;;1.80;98.30;;;;;;5027251;28;20021;-70
2023/01/23 07:20:26;;;;;;;12.93;6.07;;;1.80;98.30;;;;;;5027127;28;20025;-70
2023/01/23 07:22:52;;;;;;;11.13;5.70;;;1.80;98.30;;;;;;5019100;28;20148;-70
2023/01/23 07:25:18;;;;;;;13.90;6.40;;;1.80;98.30;;;;;;5020469;28;20045;-70
2023/01/23 07:27:43;;;;;;;12.00;6.03;;;1.80;98.30;;;;;;5017330;28;20156;-70
2023/01/23 07:30:10;;;;;;;11.93;6.30;;;1.80;98.40;;;;;;5017717;28;20387;-70
2023/01/23 07:32:35;;;;;;;13.05;6.85;;;1.80;98.30;;;;;;5000128;28;20390;-70
2023/01/23 07:35:01;;;;;;;11.88;6.28;;;1.80;98.30;;;;;;5014123;28;20033;-70
2023/01/23 07:37:26;;;;;;;13.27;6.82;;;1.80;98.30;;;;;;5022011;28;20033;-70
2023/01/23 07:39:52;;;;;;;12.75;7.05;;;1.90;98.30;;;;;;5031439;28;20477;-70
2023/01/23 07:42:18;;;;;;;11.13;6.60;;;1.80;98.30;;;;;;5020421;28;20029;-70
2023/01/23 07:44:43;;;;;;;12.40;6.88;;;1.80;98.30;;;;;;5021716;28;20025;-70
2023/01/23 07:47:09;;;;;;;14.38;7.10;;;1.80;98.20;;;;;;5018475;28;20034;-70
2023/01/23 07:49:34;;;;;;;10.98;6.93;;;1.90;98.30;;;;;;5022886;28;20034;-70
2023/01/23 07:52:00;;;;;;;12.38;7.38;;;1.80;98.30;;;;;;5025305;28;20542;-70
2023/01/23 07:54:26;;;;;;;11.98;6.88;;;1.90;98.30;;;;;;5024582;28;20042;-70
2023/01/23 07:56:51;;;;;;;13.30;7.65;;;1.90;98.20;;;;;;5024790;28;20393;-70
2023/01/23 07:59:17;;;;;;;14.35;7.15;;;1.90;98.20;;;;;;5023478;28;20029;-70
2023/01/23 08:01:43;;;;;;;17.52;7.90;;;1.90;98.30;;;;;;5025060;28;20470;-70
2023/01/23 08:04:08;;;;;;;14.15;7.82;;;2.00;98.30;;;;;;5025515;28;20038;-70
2023/01/23 08:06:34;;;;;;;15.27;8.18;;;1.90;98.20;;;;;;5028671;28;20029;-70
2023/01/23 08:08:59;;;;;;;16.15;8.40;;;1.90;98.20;;;;;;5020860;28;20031;-70
2023/01/23 08:11:27;;;;;;;12.52;7.93;;;1.90;98.20;;;;;;5024607;28;20030;-70
2023/01/23 08:13:53;;;;;;;16.95;8.25;;;2.00;98.20;;;;;;5017341;28;20032;-70
2023/01/23 08:16:19;;;;;;;13.68;7.80;;;2.00;98.10;;;;;;5020664;28;20037;-70
2023/01/23 08:18:44;;;;;;;15.18;8.32;;;2.00;98.10;;;;;;5015771;28;20029;-70
2023/01/23 08:21:10;;;;;;;15.40;7.90;;;2.00;98.10;;;;;;5025907;28;20099;-70
2023/01/23 08:23:35;;;;;;;14.90;7.80;;;2.10;98.00;;;;;;5023122;28;20041;-70
2023/01/23 08:26:04;;;;;;;14.85;7.28;;;2.00;98.00;;;;;;5031345;28;20022;-70
2023/01/23 08:28:30;;;;;;;13.88;7.43;;;2.10;97.90;;;;;;5025790;28;20470;-70
2023/01/23 08:31:00;;;;;;;12.15;7.25;;;2.10;97.80;;;;;;5028640;28;20072;-69
2023/01/23 08:33:25;;;;;;;13.02;7.40;;;2.10;97.80;;;;;;5018596;28;20053;-70
2023/01/23 08:35:56;;;;;;;13.93;7.13;;;2.20;97.80;;;;;;5023293;28;20033;-70
2023/01/23 08:38:22;;;;;;;;;;;2.20;97.80;;;;;;5024469;28;20041;-70
2023/01/23 08:40:49;;;;;;;11.32;6.50;;;2.20;97.80;;;;;;5040620;28;20321;-70
2023/01/23 08:43:16;;;;;;;11.60;7.25;;;2.20;97.70;;;;;;5028962;28;20034;-70
2023/01/23 08:45:47;;;;;;;11.77;7.18;;;2.30;97.60;;;;;;5029514;28;20390;-70
2023/01/23 08:48:13;;;;;;;14.10;7.60;;;2.30;97.60;;;;;;5032121;28;20087;-70
2023/01/23 08:50:38;;;;;;;16.35;7.35;;;2.30;97.50;;;;;;5026220;28;20038;-70
2023/01/23 08:53:04;;;;;;;14.65;7.93;;;2.30;97.50;;;;;;5027898;28;20033;-70
2023/01/23 08:55:31;;;;;;;14.48;7.93;;;2.30;97.50;;;;;;5029562;28;20026;-70
2023/01/23 08:57:57;;;;;;;13.00;7.60;;;2.40;97.30;;;;;;5034291;28;20037;-70
2023/01/23 09:00:22;;;;;;;15.27;8.02;;;2.40;97.40;;;;;;5024309;28;20036;-70
2023/01/23 09:02:48;;;;;;;15.65;7.55;;;2.40;97.20;;;;;;5031397;28;20029;-69
2023/01/23 09:05:14;;;;;;;12.35;7.50;;;2.40;97.20;;;;;;5026520;28;20425;-70
2023/01/23 09:07:39;;;;;;;11.52;7.15;;;2.50;97.20;;;;;;5028591;28;20065;-69
2023/01/23 09:10:06;;;;;;;13.25;7.43;;;2.50;97.20;;;;;;5028791;28;20030;-70
2023/01/23 09:12:31;;;;;;;14.32;7.65;;;2.60;97.20;;;;;;5025219;28;20033;-70
2023/01/23 09:14:59;;;;;;;14.73;7.55;;;2.60;97.10;;;;;;5031239;28;20482;-70
2023/01/23 09:17:25;;;;;;;11.38;7.07;;;2.70;97.10;;;;;;5036566;28;20090;-70
2023/01/23 09:19:52;;;;;;;14.45;7.60;;;2.70;97.10;;;;;;5024821;28;20030;-70
2023/01/23 09:22:17;;;;;;;11.88;7.30;;;2.70;96.80;;;;;;5032905;28;20535;-70
2023/01/23 09:24:43;;;;;;;15.02;7.47;;;2.70;96.80;;;;;;5033132;28;20116;-70
2023/01/23 09:27:08;;;;;;;12.75;7.20;;;2.80;96.90;;;;;;5020106;28;20025;-70
2023/01/23 09:29:34;;;;;;;13.27;7.68;;;2.90;96.90;;;;;;5031955;28;20022;-70
2023/01/23 09:32:00;;;;;;;14.38;7.57;;;2.80;96.80;;;;;;5037097;28;20098;-70
2023/01/23 09:34:26;;;;;;;16.67;7.47;;;2.80;96.70;;;;;;5023409;28;20025;-70
2023/01/23 09:36:51;;;;;;;15.48;8.18;;;2.90;96.60;;;;;;5026053;28;20497;-70
2023/01/23 09:39:17;;;;;;;12.25;6.90;;;2.90;96.50;;;;;;5038592;28;20048;-70
2023/01/23 09:41:44;;;;;;;15.75;8.05;;;3.00;96.40;;;;;;5047078;28;20037;-70
2023/01/23 09:44:35;;;;;;;14.02;7.80;;;2.90;96.20;;;;;;5033149;28;20030;-70
2023/01/23 09:47:24;;;;;;;13.38;7.60;;;3.00;96.20;;;;;;5021616;28;20497;-70
2023/01/23 09:50:01;;;;;;;12.95;7.70;;;3.10;96.30;;;;;;5023543;28;20053;-70
2023/01/23 09:52:32;;;;;;;13.27;7.25;;;3.10;96.10;;;;;;5016330;28;20481;-70
2023/01/23 09:55:21;;;;;;;13.43;8.20;;;3.10;95.90;;;;;;5021964;28;20034;-70
2023/01/23 09:57:55;;;;;;;13.02;7.05;;;3.20;95.90;;;;;;5018235;28;20036;-70
2023/01/23 10:00:27;;;;;;;10.48;6.47;;;3.10;95.60;;;;;;5029485;28;20030;-70
2023/01/23 10:02:54;;;;;;;10.57;7.25;;;3.20;95.80;;;;;;5029350;28;20033;-70
2023/01/23 10:05:29;;;;;;;14.07;7.50;;;3.30;95.80;;;;;;5028665;28;20037;-70
2023/01/23 10:08:06;;;;;;;13.25;6.95;;;3.30;95.70;;;;;;5032842;28;20072;-70
2023/01/23 10:10:56;;;;;;;13.40;7.05;;;3.30;95.60;;;;;;5038334;28;20461;-70
2023/01/23 10:13:49;;;;;;;11.88;7.07;;;3.30;95.20;;;;;;5016946;28;20045;-70
2023/01/23 10:16:21;;;;;;;10.73;6.72;;;3.30;95.30;;;;;;5023530;28;20167;-70
2023/01/23 10:19:02;;;;;;;11.07;6.22;;;3.20;95.00;;;;;;5025697;28;20389;-70
2023/01/23 10:21:34;;;;;;;11.55;6.68;;;3.20;95.00;;;;;;5021168;28;20040;-70
2023/01/23 10:24:07;;;;;;;11.57;7.28;;;3.20;94.90;;;;;;5019152;28;20065;-69
2023/01/23 10:26:41;;;;;;;11.90;6.97;;;3.10;94.80;;;;;;5023927;28;20037;-70
2023/01/23 10:29:17;;;;;;;13.30;7.57;;;3.10;94.60;;;;;;5021759;28;20429;-71
2023/01/23 10:31:55;;;;;;;12.70;7.28;;;3.20;94.70;;;;;;5027214;28;20478;-71
2023/01/23 10:34:36;;;;;;;11.93;7.43;;;3.20;94.60;;;;;;5026342;28;20037;-71
2023/01/23 10:37:35;;;;;;;13.05;7.13;;;3.30;94.70;;;;;;5027641;28;20099;-71
2023/01/23 10:40:06;;;;;;;13.35;7.20;;;3.30;94.70;;;;;;5020661;28;20021;-71
2023/01/23 10:42:32;;;;;;;11.52;7.18;;;3.40;94.60;;;;;;5017292;28;20311;-70
2023/01/23 10:44:58;;;;;;;12.85;7.32;;;3.30;94.50;;;;;;5019034;28;20032;-70
2023/01/23 10:47:32;;;;;;;13.40;7.57;;;3.40;94.60;;;;;;5017160;28;20077;-70
2023/01/23 10:49:58;;;;;;;11.70;7.15;;;3.30;94.40;;;;;;5022051;28;20083;-70
2023/01/23 10:52:33;;;;;;;12.13;7.63;;;3.40;94.30;;;;;;5026486;28;20029;-70
2023/01/23 10:54:59;;;;;;;13.35;7.20;;;3.20;94.20;;;;;;5029065;28;20068;-70
2023/01/23 10:57:34;;;;;;;12.32;8.13;;;3.10;94.30;;;;;;5018273;28;20061;-70
2023/01/23 11:00:26;;;;;;;15.00;8.18;;;3.30;94.50;;;;;;5028025;28;20434;-70
2023/01/23 11:02:52;;;;;;;12.40;7.88;;;3.40;94.50;;;;;;5018254;28;20022;-69
2023/01/23 11:05:42;;;;;;;13.02;8.20;;;3.40;94.40;;;;;;5022224;28;20040;-69
2023/01/23 11:08:36;;;;;;;13.52;8.48;;;3.40;94.40;;;;;;5010255;28;20076;-70
2023/01/23 11:11:14;;;;;;;14.63;8.43;;;3.40;94.30;;;;;;5021678;28;20084;-70
2023/01/23 11:13:41;;;;;;;13.07;7.07;;;3.40;94.00;;;;;;5023459;28;20038;-70
2023/01/23 11:16:17;;;;;;;13.40;8.45;;;3.30;93.90;;;;;;5025360;28;20044;-70
2023/01/23 11:19:12;;;;;;;14.93;8.73;;;3.30;94.30;;;;;;5026183;28;20096;-70
2023/01/23 11:21:50;;;;;;;14.95;8.65;;;3.40;94.20;;;;;;5021626;28;20041;-69
2023/01/23 11:24:24;;;;;;;13.93;8.77;;;3.40;94.00;;;;;;5021750;28;20084;-70
2023/01/23 11:27:00;;;;;;;15.82;8.10;;;3.30;94.10;;;;;;5020293;28;20037;-70
2023/01/23 11:29:29;;;;;;;15.18;8.32;;;3.50;94.10;;;;;;5016168;28;20332;-70
2023/01/23 11:32:01;;;;;;;14.23;8.25;;;3.50;94.10;;;;;;5022499;28;20486;-69
2023/01/23 11:34:37;;;;;;;14.27;8.27;;;3.60;94.10;;;;;;5017830;28;20516;-70
2023/01/23 11:37:29;;;;;;;16.33;9.10;;;3.50;93.70;;;;;;5015579;28;20398;-69
2023/01/23 11:40:09;;;;;;;16.02;8.55;;;3.60;93.90;;;;;;5018574;28;20458;-69
2023/01/23 11:42:39;;;;;;;13.90;7.97;;;3.70;93.90;;;;;;5018752;28;20029;-72
2023/01/23 11:45:11;;;;;;;15.27;9.10;;;3.80;93.90;;;;;;5019376;28;20084;-71
2023/01/23 11:48:13;;;;;;;14.23;8.65;;;3.70;93.40;;;;;;5014766;28;20590;-70
2023/01/23 11:51:08;;;;;;;13.98;8.95;;;3.70;93.40;;;;;;5028230;28;20033;-70
2023/01/23 11:53:44;;;;;;;12.32;7.97;;;3.70;93.30;;;;;;5019797;28;20099;-70
2023/01/23 11:56:38;;;;;;;13.95;8.30;;;3.70;93.10;;;;;;5022625;28;20041;-70
2023/01/23 11:59:32;;;;;;;13.57;7.63;;;3.80;93.10;;;;;;5015299;28;20094;-70
2023/01/23 12:02:16;;;;;;;12.38;7.68;;;3.70;92.70;;;;;;5018832;28;20029;-70
2023/01/23 12:05:24;;;;;;;11.90;7.30;;;3.80;92.80;;;;;;5023010;28;20037;-74
2023/01/23 12:08:03;;;;;;;16.13;8.32;;;3.80;92.70;;;;;;5021910;28;20033;-74
2023/01/23 12:10:52;;;;;;;14.55;7.53;;;3.80;92.50;;;;;;5015833;28;20120;-70
2023/01/23 12:13:53;;;;;;;13.82;7.57;;;3.80;92.50;;;;;;5024089;28;20038;-70
2023/01/23 12:16:27;;;;;;;16.55;8.00;;;3.80;92.60;;;;;;5029505;28;20386;-70
2023/01/23 12:18:55;;;;;;;12.48;7.90;;;3.80;92.60;;;;;;5018000;28;20037;-70
2023/01/23 12:21:34;;;;;;;14.25;7.72;;;3.80;92.70;;;;;;5028035;28;20393;-70
2023/01/23 12:24:33;;;;;;;12.23;8.13;;;3.80;92.50;;;;;;5024823;28;20046;-71
2023/01/23 12:27:09;;;;;;;12.82;8.00;;;3.80;92.20;;;;;;5022436;28;20041;-71
2023/01/23 12:30:05;;;;;;;13.85;8.05;;;3.80;92.70;;;;;;5026790;28;20037;-70
2023/01/23 12:32:43;;;;;;;15.02;8.43;;;3.90;93.10;;;;;;5024453;28;20470;-70
2023/01/23 12:35:26;;;;;;;15.95;9.07;;;3.80;92.90;;;;;;5020167;28;20084;-70
2023/01/23 12:38:46;;;;;;;14.57;8.27;;;3.80;93.10;;;;;;5022487;28;20029;-68
2023/01/23 12:41:36;;;;;;;15.75;8.55;;;3.90;93.20;;;;;;5026256;28;20381;-70
2023/01/23 12:44:17;;;;;;;13.43;8.65;;;3.80;92.80;;;;;;5017925;28;20084;-70
2023/01/23 12:46:52;;;;;;;12.88;8.05;;;3.80;93.00;;;;;;5021778;28;20113;-70
2023/01/23 12:49:39;;;;;;;15.50;9.10;;;3.90;92.90;;;;;;5017522;28;20034;-70
2023/01/23 12:52:29;;;;;;;16.58;8.52;;;3.80;92.70;;;;;;5011589;28;20037;-70
2023/01/23 12:55:12;;;;;;;17.05;8.77;;;3.80;92.70;;;;;;5024684;28;20064;-68
2023/01/23 12:57:38;;;;;;;15.38;8.60;;;3.80;92.80;;;;;;5013016;28;20044;-70
2023/01/23 13:00:23;;;;;;;16.05;8.60;;;3.70;92.30;;;;;;5020315;28;20033;-71
2023/01/23 13:03:23;;;;;;;18.15;8.73;;;3.70;92.60;;;;;;5025376;28;20458;-68
2023/01/23 13:05:58;;;;;;;16.50;8.65;;;3.70;92.70;;;;;;5015172;28;20474;-69
2023/01/23 13:08:45;;;;;;;14.75;8.65;;;3.80;92.90;;;;;;5023839;28;20043;-71
2023/01/23 13:11:44;;;;;;;14.27;9.15;;;3.80;93.10;;;;;;5020378;28;20099;-69
2023/01/23 13:14:41;;;;;;;13.07;7.95;;;3.80;93.10;;;;;;5027338;28;20465;-69